sensor_id;sensor_type;location;lat;lon;timestamp;P1;durP1;ratioP1;P2;durP2;ratioP2
49376;SDS011;35253;34.688;33.040;2023-03-31T00:00:28;4.72;;;1.60;;
49376;SDS011;35253;34.688;33.040;2023-03-31T00:02:55;3.22;;;1.45;;
49376;SDS011;35253;34.688;33.040;2023-03-31T00:05:22;3.22;;;2.83;;
49376;SDS011;35253;34.688;33.040;2023-03-31T00:07:55;1.70;;;1.10;;
49376;SDS011;35253;34.688;33.040;2023-03-31T00:10:26;4.97;;;2.58;;
49376;SDS011;35253;34.688;33.040;2023-03-31T00:12:52;7.28;;;4.50;;
49376;SDS011;35253;34.688;33.040;2023-03-31T00:15:18;9.95;;;3.65;;
49376;SDS011;35253;34.688;33.040;2023-03-31T00:17:44;30.58;;;7.45;;
49376;SDS011;35253;34.688;33.040;2023-03-31T00:20:11;15.18;;;6.10;;
49376;SDS011;35253;34.688;33.040;2023-03-31T00:22:39;1.98;;;1.70;;
49376;SDS011;35253;34.688;33.040;2023-03-31T00:25:07;2.55;;;1.35;;
49376;SDS011;35253;34.688;33.040;2023-03-31T00:27:36;3.75;;;1.30;;
49376;SDS011;35253;34.688;33.040;2023-03-31T00:30:01;5.40;;;0.90;;
49376;SDS011;35253;34.688;33.040;2023-03-31T00:32:30;5.68;;;1.70;;
49376;SDS011;35253;34.688;33.040;2023-03-31T00:34:57;1.58;;;1.20;;
49376;SDS011;35253;34.688;33.040;2023-03-31T00:37:22;6.03;;;1.58;;
49376;SDS011;35253;34.688;33.040;2023-03-31T00:39:48;5.47;;;1.33;;
49376;SDS011;35253;34.688;33.040;2023-03-31T00:42:14;4.22;;;1.23;;
49376;SDS011;35253;34.688;33.040;2023-03-31T00:47:56;2.05;;;0.88;;
49376;SDS011;35253;34.688;33.040;2023-03-31T00:50:44;2.70;;;1.08;;
49376;SDS011;35253;34.688;33.040;2023-03-31T00:53:15;2.83;;;1.73;;
49376;SDS011;35253;34.688;33.040;2023-03-31T00:55:46;1.83;;;1.10;;
49376;SDS011;35253;34.688;33.040;2023-03-31T00:58:15;3.20;;;0.88;;
49376;SDS011;35253;34.688;33.040;2023-03-31T01:00:47;1.98;;;1.00;;
49376;SDS011;35253;34.688;33.040;2023-03-31T01:03:16;2.25;;;1.50;;
49376;SDS011;35253;34.688;33.040;2023-03-31T01:05:56;2.95;;;1.52;;
49376;SDS011;35253;34.688;33.040;2023-03-31T01:08:29;3.88;;;1.50;;
49376;SDS011;35253;34.688;33.040;2023-03-31T01:11:01;4.20;;;1.05;;
49376;SDS011;35253;34.688;33.040;2023-03-31T01:13:31;2.55;;;0.90;;
49376;SDS011;35253;34.688;33.040;2023-03-31T01:16:01;1.60;;;1.00;;
49376;SDS011;35253;34.688;33.040;2023-03-31T01:18:27;1.45;;;0.80;;
49376;SDS011;35253;34.688;33.040;2023-03-31T01:32:12;3.40;;;1.75;;
49376;SDS011;35253;34.688;33.040;2023-03-31T01:45:43;2.47;;;1.13;;
49376;SDS011;35253;34.688;33.040;2023-03-31T01:51:18;1.60;;;1.10;;
49376;SDS011;35253;34.688;33.040;2023-03-31T01:53:57;1.98;;;1.02;;
49376;SDS011;35253;34.688;33.040;2023-03-31T01:56:36;3.88;;;1.08;;
49376;SDS011;35253;34.688;33.040;2023-03-31T01:59:12;1.85;;;0.90;;
49376;SDS011;35253;34.688;33.040;2023-03-31T02:01:51;4.40;;;1.33;;
49376;SDS011;35253;34.688;33.040;2023-03-31T02:04:39;4.25;;;0.93;;
49376;SDS011;35253;34.688;33.040;2023-03-31T02:07:15;2.50;;;0.98;;
49376;SDS011;35253;34.688;33.040;2023-03-31T02:09:46;1.67;;;0.93;;
49376;SDS011;35253;34.688;33.040;2023-03-31T02:12:17;5.68;;;1.17;;
49376;SDS011;35253;34.688;33.040;2023-03-31T02:14:46;4.13;;;1.23;;
49376;SDS011;35253;34.688;33.040;2023-03-31T02:17:17;4.82;;;1.48;;
49376;SDS011;35253;34.688;33.040;2023-03-31T02:19:47;0.75;;;0.75;;
49376;SDS011;35253;34.688;33.040;2023-03-31T02:22:16;2.25;;;1.10;;
49376;SDS011;35253;34.688;33.040;2023-03-31T02:24:46;4.13;;;1.00;;
49376;SDS011;35253;34.688;33.040;2023-03-31T02:27:20;7.10;;;1.40;;
49376;SDS011;35253;34.688;33.040;2023-03-31T02:29:49;5.60;;;2.15;;
49376;SDS011;35253;34.688;33.040;2023-03-31T02:34:54;4.15;;;1.63;;
49376;SDS011;35253;34.688;33.040;2023-03-31T02:37:20;5.40;;;1.80;;
49376;SDS011;35253;34.688;33.040;2023-03-31T02:39:47;10.30;;;2.15;;
49376;SDS011;35253;34.688;33.040;2023-03-31T02:42:16;3.40;;;1.40;;
49376;SDS011;35253;34.688;33.040;2023-03-31T02:44:42;4.38;;;1.30;;
49376;SDS011;35253;34.688;33.040;2023-03-31T02:47:10;2.90;;;1.38;;
49376;SDS011;35253;34.688;33.040;2023-03-31T02:49:38;2.83;;;1.65;;
49376;SDS011;35253;34.688;33.040;2023-03-31T02:54:49;8.63;;;3.65;;
49376;SDS011;35253;34.688;33.040;2023-03-31T03:00:40;11.95;;;2.50;;
49376;SDS011;35253;34.688;33.040;2023-03-31T03:14:08;3.53;;;2.03;;
49376;SDS011;35253;34.688;33.040;2023-03-31T03:16:52;9.23;;;1.73;;
49376;SDS011;35253;34.688;33.040;2023-03-31T03:19:25;7.38;;;2.17;;
49376;SDS011;35253;34.688;33.040;2023-03-31T03:21:51;3.72;;;1.55;;
49376;SDS011;35253;34.688;33.040;2023-03-31T03:24:17;4.65;;;1.98;;
49376;SDS011;35253;34.688;33.040;2023-03-31T03:26:43;10.32;;;1.67;;
49376;SDS011;35253;34.688;33.040;2023-03-31T03:29:10;12.18;;;1.38;;
49376;SDS011;35253;34.688;33.040;2023-03-31T03:31:39;5.50;;;1.42;;
49376;SDS011;35253;34.688;33.040;2023-03-31T03:34:05;4.25;;;2.10;;
49376;SDS011;35253;34.688;33.040;2023-03-31T03:36:31;4.90;;;1.63;;
49376;SDS011;35253;34.688;33.040;2023-03-31T03:38:57;5.25;;;2.08;;
49376;SDS011;35253;34.688;33.040;2023-03-31T03:41:22;5.60;;;1.70;;
49376;SDS011;35253;34.688;33.040;2023-03-31T03:43:48;4.80;;;2.30;;
49376;SDS011;35253;34.688;33.040;2023-03-31T03:46:14;15.05;;;2.75;;
49376;SDS011;35253;34.688;33.040;2023-03-31T03:48:40;7.35;;;1.65;;
49376;SDS011;35253;34.688;33.040;2023-03-31T03:51:05;6.28;;;2.47;;
49376;SDS011;35253;34.688;33.040;2023-03-31T03:53:31;7.30;;;1.60;;
49376;SDS011;35253;34.688;33.040;2023-03-31T03:55:57;9.98;;;2.88;;
49376;SDS011;35253;34.688;33.040;2023-03-31T03:58:23;6.85;;;2.28;;
49376;SDS011;35253;34.688;33.040;2023-03-31T04:00:49;4.68;;;2.45;;
49376;SDS011;35253;34.688;33.040;2023-03-31T04:03:15;5.85;;;2.03;;
49376;SDS011;35253;34.688;33.040;2023-03-31T04:05:41;5.22;;;2.20;;
49376;SDS011;35253;34.688;33.040;2023-03-31T04:08:06;3.95;;;1.80;;
49376;SDS011;35253;34.688;33.040;2023-03-31T04:10:33;14.70;;;2.38;;
49376;SDS011;35253;34.688;33.040;2023-03-31T04:12:59;5.10;;;1.55;;
49376;SDS011;35253;34.688;33.040;2023-03-31T04:15:25;8.57;;;1.80;;
49376;SDS011;35253;34.688;33.040;2023-03-31T04:17:51;11.68;;;1.80;;
49376;SDS011;35253;34.688;33.040;2023-03-31T04:20:19;16.60;;;4.18;;
49376;SDS011;35253;34.688;33.040;2023-03-31T04:22:45;9.75;;;2.08;;
49376;SDS011;35253;34.688;33.040;2023-03-31T04:25:14;6.43;;;2.30;;
49376;SDS011;35253;34.688;33.040;2023-03-31T04:27:41;9.25;;;2.30;;
49376;SDS011;35253;34.688;33.040;2023-03-31T04:30:15;5.93;;;2.15;;
49376;SDS011;35253;34.688;33.040;2023-03-31T04:32:53;7.57;;;2.22;;
49376;SDS011;35253;34.688;33.040;2023-03-31T04:35:21;6.05;;;1.98;;
49376;SDS011;35253;34.688;33.040;2023-03-31T04:37:48;11.57;;;1.80;;
49376;SDS011;35253;34.688;33.040;2023-03-31T04:40:16;6.20;;;1.60;;
49376;SDS011;35253;34.688;33.040;2023-03-31T04:42:43;4.47;;;1.83;;
49376;SDS011;35253;34.688;33.040;2023-03-31T04:45:09;11.85;;;2.30;;
49376;SDS011;35253;34.688;33.040;2023-03-31T04:47:36;6.70;;;1.95;;
49376;SDS011;35253;34.688;33.040;2023-03-31T04:50:02;7.95;;;2.30;;
49376;SDS011;35253;34.688;33.040;2023-03-31T04:52:28;14.98;;;2.90;;
49376;SDS011;35253;34.688;33.040;2023-03-31T04:54:54;15.70;;;3.67;;
49376;SDS011;35253;34.688;33.040;2023-03-31T04:57:20;7.32;;;2.17;;
49376;SDS011;35253;34.688;33.040;2023-03-31T04:59:46;8.23;;;2.42;;
49376;SDS011;35253;34.688;33.040;2023-03-31T05:02:11;14.43;;;3.30;;
49376;SDS011;35253;34.688;33.040;2023-03-31T05:04:37;7.30;;;1.80;;
49376;SDS011;35253;34.688;33.040;2023-03-31T05:07:03;3.80;;;1.77;;
49376;SDS011;35253;34.688;33.040;2023-03-31T05:09:29;4.93;;;1.80;;
49376;SDS011;35253;34.688;33.040;2023-03-31T05:11:56;14.30;;;6.03;;
49376;SDS011;35253;34.688;33.040;2023-03-31T05:14:22;11.63;;;2.67;;
49376;SDS011;35253;34.688;33.040;2023-03-31T05:16:48;5.32;;;1.90;;
49376;SDS011;35253;34.688;33.040;2023-03-31T05:19:13;14.65;;;2.97;;
49376;SDS011;35253;34.688;33.040;2023-03-31T05:21:39;15.50;;;4.68;;
49376;SDS011;35253;34.688;33.040;2023-03-31T05:24:05;11.88;;;3.28;;
49376;SDS011;35253;34.688;33.040;2023-03-31T05:26:30;8.95;;;1.95;;
49376;SDS011;35253;34.688;33.040;2023-03-31T05:28:56;5.45;;;1.58;;
49376;SDS011;35253;34.688;33.040;2023-03-31T05:31:22;5.18;;;1.52;;
49376;SDS011;35253;34.688;33.040;2023-03-31T05:33:48;10.07;;;1.98;;
49376;SDS011;35253;34.688;33.040;2023-03-31T05:36:14;10.13;;;3.60;;
49376;SDS011;35253;34.688;33.040;2023-03-31T05:38:41;3.97;;;2.10;;
49376;SDS011;35253;34.688;33.040;2023-03-31T05:41:08;4.00;;;1.80;;
49376;SDS011;35253;34.688;33.040;2023-03-31T05:46:52;2.42;;;1.60;;
49376;SDS011;35253;34.688;33.040;2023-03-31T05:49:18;5.85;;;1.70;;
49376;SDS011;35253;34.688;33.040;2023-03-31T05:51:44;7.38;;;1.80;;
49376;SDS011;35253;34.688;33.040;2023-03-31T05:54:09;3.92;;;2.30;;
49376;SDS011;35253;34.688;33.040;2023-03-31T05:56:35;7.90;;;3.80;;
49376;SDS011;35253;34.688;33.040;2023-03-31T05:59:01;6.97;;;3.30;;
49376;SDS011;35253;34.688;33.040;2023-03-31T06:01:26;18.30;;;4.65;;
49376;SDS011;35253;34.688;33.040;2023-03-31T06:03:54;4.40;;;2.20;;
49376;SDS011;35253;34.688;33.040;2023-03-31T06:06:20;10.88;;;3.28;;
49376;SDS011;35253;34.688;33.040;2023-03-31T06:08:46;6.72;;;2.67;;
49376;SDS011;35253;34.688;33.040;2023-03-31T06:11:14;4.50;;;1.80;;
49376;SDS011;35253;34.688;33.040;2023-03-31T06:13:43;6.20;;;1.73;;
49376;SDS011;35253;34.688;33.040;2023-03-31T06:16:10;6.60;;;2.45;;
49376;SDS011;35253;34.688;33.040;2023-03-31T06:18:37;9.98;;;2.97;;
49376;SDS011;35253;34.688;33.040;2023-03-31T06:21:03;4.97;;;1.88;;
49376;SDS011;35253;34.688;33.040;2023-03-31T06:23:29;6.22;;;2.58;;
49376;SDS011;35253;34.688;33.040;2023-03-31T06:25:58;1.80;;;1.38;;
49376;SDS011;35253;34.688;33.040;2023-03-31T06:28:35;4.25;;;2.42;;
49376;SDS011;35253;34.688;33.040;2023-03-31T06:31:01;3.88;;;2.08;;
49376;SDS011;35253;34.688;33.040;2023-03-31T06:33:29;7.00;;;1.40;;
49376;SDS011;35253;34.688;33.040;2023-03-31T06:35:55;4.13;;;1.58;;
49376;SDS011;35253;34.688;33.040;2023-03-31T06:38:21;8.02;;;1.50;;
49376;SDS011;35253;34.688;33.040;2023-03-31T06:40:47;7.38;;;1.80;;
49376;SDS011;35253;34.688;33.040;2023-03-31T06:43:13;5.13;;;2.10;;
49376;SDS011;35253;34.688;33.040;2023-03-31T06:45:38;5.68;;;2.20;;
49376;SDS011;35253;34.688;33.040;2023-03-31T06:48:04;3.17;;;2.10;;
49376;SDS011;35253;34.688;33.040;2023-03-31T06:50:30;4.72;;;1.83;;
49376;SDS011;35253;34.688;33.040;2023-03-31T06:52:56;3.05;;;1.50;;
49376;SDS011;35253;34.688;33.040;2023-03-31T06:55:22;5.28;;;2.95;;
49376;SDS011;35253;34.688;33.040;2023-03-31T06:57:48;3.03;;;1.00;;
49376;SDS011;35253;34.688;33.040;2023-03-31T07:00:14;4.00;;;1.65;;
49376;SDS011;35253;34.688;33.040;2023-03-31T07:02:40;5.82;;;2.28;;
49376;SDS011;35253;34.688;33.040;2023-03-31T07:05:06;3.25;;;1.65;;
49376;SDS011;35253;34.688;33.040;2023-03-31T07:07:32;6.57;;;2.35;;
49376;SDS011;35253;34.688;33.040;2023-03-31T07:09:58;5.57;;;2.67;;
49376;SDS011;35253;34.688;33.040;2023-03-31T07:12:24;6.20;;;2.72;;
49376;SDS011;35253;34.688;33.040;2023-03-31T07:14:50;10.05;;;3.03;;
49376;SDS011;35253;34.688;33.040;2023-03-31T07:17:15;17.80;;;4.55;;
49376;SDS011;35253;34.688;33.040;2023-03-31T07:19:41;1.83;;;1.52;;
49376;SDS011;35253;34.688;33.040;2023-03-31T07:22:12;4.22;;;1.85;;
49376;SDS011;35253;34.688;33.040;2023-03-31T07:24:38;3.60;;;2.10;;
49376;SDS011;35253;34.688;33.040;2023-03-31T07:27:04;12.70;;;2.45;;
49376;SDS011;35253;34.688;33.040;2023-03-31T07:29:30;10.35;;;4.90;;
49376;SDS011;35253;34.688;33.040;2023-03-31T07:31:56;4.35;;;1.83;;
49376;SDS011;35253;34.688;33.040;2023-03-31T07:34:22;7.00;;;3.33;;
49376;SDS011;35253;34.688;33.040;2023-03-31T07:36:47;5.13;;;2.53;;
49376;SDS011;35253;34.688;33.040;2023-03-31T07:39:13;8.02;;;2.80;;
49376;SDS011;35253;34.688;33.040;2023-03-31T07:41:39;11.98;;;3.72;;
49376;SDS011;35253;34.688;33.040;2023-03-31T07:44:04;3.53;;;2.50;;
49376;SDS011;35253;34.688;33.040;2023-03-31T07:46:30;6.10;;;2.13;;
49376;SDS011;35253;34.688;33.040;2023-03-31T07:48:56;13.40;;;3.70;;
49376;SDS011;35253;34.688;33.040;2023-03-31T07:51:23;4.10;;;2.00;;
49376;SDS011;35253;34.688;33.040;2023-03-31T07:53:50;9.82;;;3.45;;
49376;SDS011;35253;34.688;33.040;2023-03-31T07:56:17;3.47;;;2.30;;
49376;SDS011;35253;34.688;33.040;2023-03-31T07:58:45;6.60;;;2.53;;
49376;SDS011;35253;34.688;33.040;2023-03-31T08:01:18;2.80;;;1.40;;
49376;SDS011;35253;34.688;33.040;2023-03-31T08:03:46;4.18;;;2.05;;
49376;SDS011;35253;34.688;33.040;2023-03-31T08:06:17;6.45;;;2.40;;
49376;SDS011;35253;34.688;33.040;2023-03-31T08:08:43;5.03;;;2.17;;
49376;SDS011;35253;34.688;33.040;2023-03-31T08:11:09;5.57;;;2.88;;
49376;SDS011;35253;34.688;33.040;2023-03-31T08:13:35;8.90;;;3.72;;
49376;SDS011;35253;34.688;33.040;2023-03-31T08:16:01;4.00;;;2.58;;
49376;SDS011;35253;34.688;33.040;2023-03-31T08:18:28;4.75;;;1.88;;
49376;SDS011;35253;34.688;33.040;2023-03-31T08:20:54;4.72;;;2.00;;
49376;SDS011;35253;34.688;33.040;2023-03-31T08:23:20;3.25;;;2.03;;
49376;SDS011;35253;34.688;33.040;2023-03-31T08:25:45;6.28;;;1.65;;
49376;SDS011;35253;34.688;33.040;2023-03-31T08:28:11;3.60;;;1.95;;
49376;SDS011;35253;34.688;33.040;2023-03-31T08:30:41;6.90;;;2.53;;
49376;SDS011;35253;34.688;33.040;2023-03-31T08:33:07;5.28;;;2.17;;
49376;SDS011;35253;34.688;33.040;2023-03-31T08:35:36;3.08;;;1.48;;
49376;SDS011;35253;34.688;33.040;2023-03-31T08:38:02;10.63;;;3.27;;
49376;SDS011;35253;34.688;33.040;2023-03-31T08:40:28;3.20;;;1.48;;
49376;SDS011;35253;34.688;33.040;2023-03-31T08:42:56;1.88;;;1.40;;
49376;SDS011;35253;34.688;33.040;2023-03-31T08:45:29;10.90;;;3.97;;
49376;SDS011;35253;34.688;33.040;2023-03-31T08:48:03;2.20;;;1.05;;
49376;SDS011;35253;34.688;33.040;2023-03-31T08:50:45;6.65;;;1.85;;
49376;SDS011;35253;34.688;33.040;2023-03-31T08:53:27;2.22;;;1.38;;
49376;SDS011;35253;34.688;33.040;2023-03-31T08:55:57;8.05;;;2.75;;
49376;SDS011;35253;34.688;33.040;2023-03-31T09:06:37;6.38;;;3.83;;
49376;SDS011;35253;34.688;33.040;2023-03-31T09:09:11;6.72;;;2.70;;
49376;SDS011;35253;34.688;33.040;2023-03-31T09:12:24;3.45;;;1.58;;
49376;SDS011;35253;34.688;33.040;2023-03-31T09:15:03;2.35;;;1.30;;
49376;SDS011;35253;34.688;33.040;2023-03-31T09:17:42;5.03;;;1.60;;
49376;SDS011;35253;34.688;33.040;2023-03-31T09:20:21;2.42;;;1.25;;
49376;SDS011;35253;34.688;33.040;2023-03-31T09:23:00;3.42;;;1.27;;
49376;SDS011;35253;34.688;33.040;2023-03-31T09:25:37;4.45;;;1.23;;
49376;SDS011;35253;34.688;33.040;2023-03-31T09:28:09;6.38;;;2.15;;
49376;SDS011;35253;34.688;33.040;2023-03-31T09:30:50;1.65;;;1.13;;
49376;SDS011;35253;34.688;33.040;2023-03-31T09:33:26;4.60;;;1.33;;
49376;SDS011;35253;34.688;33.040;2023-03-31T09:35:56;5.10;;;1.65;;
49376;SDS011;35253;34.688;33.040;2023-03-31T09:38:23;4.97;;;1.45;;
49376;SDS011;35253;34.688;33.040;2023-03-31T09:40:54;2.83;;;1.58;;
49376;SDS011;35253;34.688;33.040;2023-03-31T09:43:22;8.88;;;2.63;;
49376;SDS011;35253;34.688;33.040;2023-03-31T09:45:51;6.82;;;3.13;;
49376;SDS011;35253;34.688;33.040;2023-03-31T09:48:22;6.88;;;2.58;;
49376;SDS011;35253;34.688;33.040;2023-03-31T09:51:01;4.25;;;1.58;;
49376;SDS011;35253;34.688;33.040;2023-03-31T09:56:05;10.55;;;2.83;;
49376;SDS011;35253;34.688;33.040;2023-03-31T09:58:42;1.92;;;0.70;;
49376;SDS011;35253;34.688;33.040;2023-03-31T10:01:11;4.75;;;1.40;;
49376;SDS011;35253;34.688;33.040;2023-03-31T10:06:18;5.60;;;3.00;;
49376;SDS011;35253;34.688;33.040;2023-03-31T10:11:19;6.90;;;2.22;;
49376;SDS011;35253;34.688;33.040;2023-03-31T10:13:47;2.75;;;1.55;;
49376;SDS011;35253;34.688;33.040;2023-03-31T10:16:27;6.93;;;2.65;;
49376;SDS011;35253;34.688;33.040;2023-03-31T10:19:10;2.47;;;1.52;;
49376;SDS011;35253;34.688;33.040;2023-03-31T10:21:47;4.75;;;1.65;;
49376;SDS011;35253;34.688;33.040;2023-03-31T10:24:19;14.77;;;6.38;;
49376;SDS011;35253;34.688;33.040;2023-03-31T10:26:47;4.57;;;1.73;;
49376;SDS011;35253;34.688;33.040;2023-03-31T10:29:18;3.33;;;0.98;;
49376;SDS011;35253;34.688;33.040;2023-03-31T10:31:49;5.95;;;3.20;;
49376;SDS011;35253;34.688;33.040;2023-03-31T10:34:16;5.93;;;1.35;;
49376;SDS011;35253;34.688;33.040;2023-03-31T10:36:45;3.47;;;1.33;;
49376;SDS011;35253;34.688;33.040;2023-03-31T10:39:13;6.47;;;2.77;;
49376;SDS011;35253;34.688;33.040;2023-03-31T10:41:42;8.50;;;3.33;;
49376;SDS011;35253;34.688;33.040;2023-03-31T10:44:10;3.97;;;2.38;;
49376;SDS011;35253;34.688;33.040;2023-03-31T10:47:04;5.10;;;2.42;;
49376;SDS011;35253;34.688;33.040;2023-03-31T10:49:42;10.40;;;2.83;;
49376;SDS011;35253;34.688;33.040;2023-03-31T10:52:19;10.88;;;4.65;;
49376;SDS011;35253;34.688;33.040;2023-03-31T10:54:47;8.63;;;3.10;;
49376;SDS011;35253;34.688;33.040;2023-03-31T10:57:16;7.78;;;2.67;;
49376;SDS011;35253;34.688;33.040;2023-03-31T10:59:58;5.03;;;1.20;;
49376;SDS011;35253;34.688;33.040;2023-03-31T11:02:54;11.60;;;5.10;;
49376;SDS011;35253;34.688;33.040;2023-03-31T11:14:02;7.82;;;3.30;;
49376;SDS011;35253;34.688;33.040;2023-03-31T11:16:40;6.18;;;3.20;;
49376;SDS011;35253;34.688;33.040;2023-03-31T11:27:34;8.23;;;1.40;;
49376;SDS011;35253;34.688;33.040;2023-03-31T11:30:21;5.75;;;1.63;;
49376;SDS011;35253;34.688;33.040;2023-03-31T11:38:48;9.20;;;3.38;;
49376;SDS011;35253;34.688;33.040;2023-03-31T11:41:49;21.42;;;4.05;;
49376;SDS011;35253;34.688;33.040;2023-03-31T11:44:16;20.85;;;4.50;;
49376;SDS011;35253;34.688;33.040;2023-03-31T11:46:53;6.57;;;1.65;;
49376;SDS011;35253;34.688;33.040;2023-03-31T11:51:59;10.88;;;1.88;;
49376;SDS011;35253;34.688;33.040;2023-03-31T11:56:56;4.60;;;1.40;;
49376;SDS011;35253;34.688;33.040;2023-03-31T11:59:25;10.70;;;4.22;;
49376;SDS011;35253;34.688;33.040;2023-03-31T12:04:25;15.27;;;2.40;;
49376;SDS011;35253;34.688;33.040;2023-03-31T12:07:09;7.50;;;2.33;;
49376;SDS011;35253;34.688;33.040;2023-03-31T12:12:59;4.72;;;1.83;;
49376;SDS011;35253;34.688;33.040;2023-03-31T12:15:34;2.85;;;1.20;;
49376;SDS011;35253;34.688;33.040;2023-03-31T12:20:55;9.18;;;2.28;;
49376;SDS011;35253;34.688;33.040;2023-03-31T12:23:29;5.47;;;2.30;;
49376;SDS011;35253;34.688;33.040;2023-03-31T12:26:08;9.00;;;2.15;;
49376;SDS011;35253;34.688;33.040;2023-03-31T12:28:47;19.88;;;9.45;;
49376;SDS011;35253;34.688;33.040;2023-03-31T12:31:20;9.52;;;4.05;;
49376;SDS011;35253;34.688;33.040;2023-03-31T12:33:52;5.68;;;2.80;;
49376;SDS011;35253;34.688;33.040;2023-03-31T12:45:31;1.70;;;0.70;;
49376;SDS011;35253;34.688;33.040;2023-03-31T12:48:16;4.70;;;1.88;;
49376;SDS011;35253;34.688;33.040;2023-03-31T12:56:07;5.18;;;1.27;;
49376;SDS011;35253;34.688;33.040;2023-03-31T12:58:37;5.28;;;2.45;;
49376;SDS011;35253;34.688;33.040;2023-03-31T13:08:51;5.72;;;2.13;;
49376;SDS011;35253;34.688;33.040;2023-03-31T13:11:21;6.63;;;1.37;;
49376;SDS011;35253;34.688;33.040;2023-03-31T13:16:41;3.67;;;1.45;;
49376;SDS011;35253;34.688;33.040;2023-03-31T13:19:09;5.15;;;2.05;;
49376;SDS011;35253;34.688;33.040;2023-03-31T13:21:52;5.03;;;1.73;;
49376;SDS011;35253;34.688;33.040;2023-03-31T13:24:22;4.93;;;2.50;;
49376;SDS011;35253;34.688;33.040;2023-03-31T13:26:50;10.73;;;2.25;;
49376;SDS011;35253;34.688;33.040;2023-03-31T13:29:24;8.63;;;2.47;;
49376;SDS011;35253;34.688;33.040;2023-03-31T13:32:05;3.97;;;1.60;;
49376;SDS011;35253;34.688;33.040;2023-03-31T13:34:33;6.78;;;1.67;;
49376;SDS011;35253;34.688;33.040;2023-03-31T13:53:58;4.00;;;1.90;;
49376;SDS011;35253;34.688;33.040;2023-03-31T13:59:39;9.55;;;3.05;;
49376;SDS011;35253;34.688;33.040;2023-03-31T14:02:35;8.40;;;2.03;;
49376;SDS011;35253;34.688;33.040;2023-03-31T14:05:29;5.78;;;1.75;;
49376;SDS011;35253;34.688;33.040;2023-03-31T14:08:37;10.87;;;3.03;;
49376;SDS011;35253;34.688;33.040;2023-03-31T14:14:15;13.48;;;5.05;;
49376;SDS011;35253;34.688;33.040;2023-03-31T14:19:38;9.60;;;4.47;;
49376;SDS011;35253;34.688;33.040;2023-03-31T14:25:37;5.07;;;1.35;;
49376;SDS011;35253;34.688;33.040;2023-03-31T14:36:57;5.00;;;2.17;;
49376;SDS011;35253;34.688;33.040;2023-03-31T14:39:25;4.53;;;2.15;;
49376;SDS011;35253;34.688;33.040;2023-03-31T14:41:55;7.70;;;3.67;;
49376;SDS011;35253;34.688;33.040;2023-03-31T14:44:24;6.78;;;1.60;;
49376;SDS011;35253;34.688;33.040;2023-03-31T14:46:51;7.57;;;2.40;;
49376;SDS011;35253;34.688;33.040;2023-03-31T14:49:20;18.63;;;7.35;;
49376;SDS011;35253;34.688;33.040;2023-03-31T14:51:52;5.78;;;2.13;;
49376;SDS011;35253;34.688;33.040;2023-03-31T14:54:19;12.20;;;3.97;;
49376;SDS011;35253;34.688;33.040;2023-03-31T14:56:53;6.78;;;2.75;;
49376;SDS011;35253;34.688;33.040;2023-03-31T14:59:22;12.57;;;2.85;;
49376;SDS011;35253;34.688;33.040;2023-03-31T15:01:51;3.70;;;2.55;;
49376;SDS011;35253;34.688;33.040;2023-03-31T15:04:22;7.35;;;2.78;;
49376;SDS011;35253;34.688;33.040;2023-03-31T15:06:50;5.53;;;2.58;;
49376;SDS011;35253;34.688;33.040;2023-03-31T15:09:22;4.90;;;1.90;;
49376;SDS011;35253;34.688;33.040;2023-03-31T15:11:58;9.15;;;2.97;;
49376;SDS011;35253;34.688;33.040;2023-03-31T15:14:34;4.93;;;1.98;;
49376;SDS011;35253;34.688;33.040;2023-03-31T15:17:04;7.93;;;3.70;;
49376;SDS011;35253;34.688;33.040;2023-03-31T15:19:33;15.77;;;5.82;;
49376;SDS011;35253;34.688;33.040;2023-03-31T15:22:10;5.70;;;1.88;;
49376;SDS011;35253;34.688;33.040;2023-03-31T15:27:07;6.50;;;2.15;;
49376;SDS011;35253;34.688;33.040;2023-03-31T15:29:40;10.02;;;3.45;;
49376;SDS011;35253;34.688;33.040;2023-03-31T15:32:13;7.18;;;3.58;;
49376;SDS011;35253;34.688;33.040;2023-03-31T15:34:51;21.77;;;7.93;;
49376;SDS011;35253;34.688;33.040;2023-03-31T15:37:21;5.18;;;2.42;;
49376;SDS011;35253;34.688;33.040;2023-03-31T15:39:54;2.97;;;2.15;;
49376;SDS011;35253;34.688;33.040;2023-03-31T15:42:22;7.20;;;3.40;;
49376;SDS011;35253;34.688;33.040;2023-03-31T15:44:56;11.68;;;4.32;;
49376;SDS011;35253;34.688;33.040;2023-03-31T15:48:00;3.65;;;1.90;;
49376;SDS011;35253;34.688;33.040;2023-03-31T15:50:28;3.38;;;1.67;;
49376;SDS011;35253;34.688;33.040;2023-03-31T15:52:54;5.20;;;2.35;;
49376;SDS011;35253;34.688;33.040;2023-03-31T15:55:23;10.15;;;4.63;;
49376;SDS011;35253;34.688;33.040;2023-03-31T15:57:54;5.15;;;2.63;;
49376;SDS011;35253;34.688;33.040;2023-03-31T16:02:56;24.25;;;13.80;;
49376;SDS011;35253;34.688;33.040;2023-03-31T16:07:58;7.88;;;2.50;;
49376;SDS011;35253;34.688;33.040;2023-03-31T16:10:24;7.13;;;3.25;;
49376;SDS011;35253;34.688;33.040;2023-03-31T16:12:53;28.17;;;16.05;;
49376;SDS011;35253;34.688;33.040;2023-03-31T16:15:28;32.97;;;16.15;;
49376;SDS011;35253;34.688;33.040;2023-03-31T16:18:16;2.97;;;2.28;;
49376;SDS011;35253;34.688;33.040;2023-03-31T16:20:55;8.32;;;3.85;;
49376;SDS011;35253;34.688;33.040;2023-03-31T16:23:27;12.02;;;5.20;;
49376;SDS011;35253;34.688;33.040;2023-03-31T16:25:55;10.98;;;6.15;;
49376;SDS011;35253;34.688;33.040;2023-03-31T16:28:22;9.50;;;3.97;;
49376;SDS011;35253;34.688;33.040;2023-03-31T16:30:51;10.73;;;6.47;;
49376;SDS011;35253;34.688;33.040;2023-03-31T16:33:19;15.27;;;5.78;;
49376;SDS011;35253;34.688;33.040;2023-03-31T16:35:48;14.88;;;6.10;;
49376;SDS011;35253;34.688;33.040;2023-03-31T16:38:18;13.48;;;7.10;;
49376;SDS011;35253;34.688;33.040;2023-03-31T16:40:46;39.20;;;18.67;;
49376;SDS011;35253;34.688;33.040;2023-03-31T16:43:14;26.13;;;16.27;;
49376;SDS011;35253;34.688;33.040;2023-03-31T16:45:44;21.50;;;12.77;;
49376;SDS011;35253;34.688;33.040;2023-03-31T16:48:12;21.42;;;11.35;;
49376;SDS011;35253;34.688;33.040;2023-03-31T16:50:38;8.73;;;5.45;;
49376;SDS011;35253;34.688;33.040;2023-03-31T16:53:05;14.40;;;5.57;;
49376;SDS011;35253;34.688;33.040;2023-03-31T16:55:31;26.33;;;13.73;;
49376;SDS011;35253;34.688;33.040;2023-03-31T16:57:57;20.50;;;10.98;;
49376;SDS011;35253;34.688;33.040;2023-03-31T17:00:27;28.90;;;14.60;;
49376;SDS011;35253;34.688;33.040;2023-03-31T17:03:04;17.17;;;7.78;;
49376;SDS011;35253;34.688;33.040;2023-03-31T17:05:31;16.38;;;7.07;;
49376;SDS011;35253;34.688;33.040;2023-03-31T17:08:02;28.60;;;15.00;;
49376;SDS011;35253;34.688;33.040;2023-03-31T17:10:28;43.55;;;18.63;;
49376;SDS011;35253;34.688;33.040;2023-03-31T17:12:53;31.27;;;17.40;;
49376;SDS011;35253;34.688;33.040;2023-03-31T17:15:19;29.63;;;14.50;;
49376;SDS011;35253;34.688;33.040;2023-03-31T17:17:45;31.00;;;16.17;;
49376;SDS011;35253;34.688;33.040;2023-03-31T17:20:11;30.42;;;15.10;;
49376;SDS011;35253;34.688;33.040;2023-03-31T17:22:37;30.38;;;12.82;;
49376;SDS011;35253;34.688;33.040;2023-03-31T17:25:04;30.27;;;14.30;;
49376;SDS011;35253;34.688;33.040;2023-03-31T17:27:32;35.28;;;18.73;;
49376;SDS011;35253;34.688;33.040;2023-03-31T17:29:58;35.17;;;17.13;;
49376;SDS011;35253;34.688;33.040;2023-03-31T17:32:24;40.10;;;20.10;;
49376;SDS011;35253;34.688;33.040;2023-03-31T17:34:50;13.02;;;5.85;;
49376;SDS011;35253;34.688;33.040;2023-03-31T17:37:16;16.45;;;8.75;;
49376;SDS011;35253;34.688;33.040;2023-03-31T17:39:43;15.80;;;7.85;;
49376;SDS011;35253;34.688;33.040;2023-03-31T17:42:10;14.75;;;7.50;;